createdAt,value
2023-04-27T00:03:08.516Z,85.50
2023-04-27T00:07:14.042Z,85.43
2023-04-27T00:11:22.967Z,85.63
2023-04-27T00:15:26.100Z,85.89
2023-04-27T00:19:30.900Z,86.26
2023-04-27T00:23:34.190Z,86.30
2023-04-27T00:27:37.100Z,86.62
2023-04-27T00:31:45.344Z,86.86
2023-04-27T00:35:48.401Z,87.40
2023-04-27T00:39:51.646Z,87.22
2023-04-27T00:43:54.620Z,87.12
2023-04-27T00:48:00.465Z,87.13
2023-04-27T00:52:03.666Z,87.28
2023-04-27T00:56:08.246Z,86.94
2023-04-27T01:00:12.347Z,86.58
2023-04-27T01:04:17.359Z,86.08
2023-04-27T01:08:20.525Z,86.20
2023-04-27T01:12:24.617Z,86.44
2023-04-27T01:16:27.529Z,86.41
2023-04-27T01:20:30.595Z,86.21
2023-04-27T01:24:35.494Z,86.21
2023-04-27T01:28:40.918Z,86.28
2023-04-27T01:32:44.003Z,86.45
2023-04-27T01:36:46.882Z,86.57
2023-04-27T01:40:50.837Z,86.57
2023-04-27T01:44:54.885Z,86.41
2023-04-27T01:48:58.359Z,86.30
2023-04-27T01:53:01.339Z,85.90
2023-04-27T01:57:18.184Z,85.85
2023-04-27T02:01:21.619Z,85.44
2023-04-27T02:05:24.545Z,85.21
2023-04-27T02:09:27.604Z,85.33
2023-04-27T02:13:30.578Z,85.38
2023-04-27T02:17:36.492Z,85.71
2023-04-27T02:22:05.057Z,86.48
2023-04-27T02:26:18.604Z,86.92
2023-04-27T02:30:22.878Z,87.25
2023-04-27T02:34:32.545Z,87.29
2023-04-27T02:38:35.386Z,86.61
2023-04-27T02:42:39.575Z,86.14
2023-04-27T02:46:49.410Z,85.76
2023-04-27T02:50:52.364Z,85.53
2023-04-27T02:54:55.306Z,85.86
2023-04-27T02:58:58.339Z,85.76
2023-04-27T03:03:03.021Z,85.96
2023-04-27T03:07:08.352Z,85.68
2023-04-27T03:11:14.604Z,85.78
2023-04-27T03:15:17.585Z,85.93
2023-04-27T03:19:37.959Z,85.90
2023-04-27T03:23:41.391Z,85.66
2023-04-27T03:27:44.385Z,85.78
2023-04-27T03:31:47.202Z,86.06
2023-04-27T03:35:57.484Z,86.00
2023-04-27T03:40:00.945Z,85.76
2023-04-27T03:44:05.071Z,85.65
2023-04-27T03:48:08.241Z,85.58
2023-04-27T03:52:19.059Z,85.69
2023-04-27T03:56:22.577Z,85.93
2023-04-27T04:00:25.454Z,86.12
2023-04-27T04:04:29.701Z,86.60
2023-04-27T04:08:35.030Z,87.16
2023-04-27T04:13:05.880Z,87.85
2023-04-27T04:17:11.657Z,89.82
2023-04-27T04:21:19.917Z,91.10
2023-04-27T04:25:22.770Z,89.79
2023-04-27T04:29:25.746Z,86.89
2023-04-27T04:33:28.584Z,85.15
2023-04-27T04:37:35.536Z,85.51
2023-04-27T04:41:39.071Z,83.29
2023-04-27T04:45:42.875Z,84.63
2023-04-27T04:49:45.888Z,86.40
2023-04-27T04:53:50.240Z,87.01
2023-04-27T04:57:55.764Z,89.00
2023-04-27T05:01:58.791Z,91.14
2023-04-27T05:06:05.667Z,91.15
2023-04-27T05:10:08.962Z,96.91
2023-04-27T05:14:14.027Z,95.80
2023-04-27T05:18:17.320Z,84.63
2023-04-27T05:22:22.146Z,80.76
2023-04-27T05:26:25.847Z,81.78
2023-04-27T05:30:29.190Z,84.42
2023-04-27T05:34:33.394Z,83.47
2023-04-27T05:38:40.401Z,84.09
2023-04-27T05:42:46.963Z,87.56
2023-04-27T05:46:51.905Z,89.00
2023-04-27T05:51:04.653Z,90.09
2023-04-27T05:55:08.379Z,89.41
2023-04-27T05:59:12.377Z,87.58
2023-04-27T06:03:16.073Z,86.08
2023-04-27T06:07:19.472Z,87.01
2023-04-27T06:11:23.966Z,84.11
2023-04-27T06:15:27.260Z,84.90
2023-04-27T06:19:30.536Z,83.05
2023-04-27T06:23:34.123Z,84.37
2023-04-27T06:27:39.439Z,85.69
2023-04-27T06:31:42.775Z,87.71
2023-04-27T06:35:47.718Z,85.06
2023-04-27T06:39:51.886Z,84.79
2023-04-27T06:43:56.278Z,82.82
2023-04-27T06:48:01.900Z,78.59
2023-04-27T06:52:05.342Z,81.41
2023-04-27T06:56:12.267Z,76.94
2023-04-27T07:00:15.591Z,74.07
2023-04-27T07:04:18.852Z,73.79
2023-04-27T07:08:22.157Z,72.61
2023-04-27T07:12:25.432Z,70.56
2023-04-27T07:16:28.762Z,69.49
2023-04-27T07:20:33.322Z,71.00
2023-04-27T07:24:37.783Z,69.04
2023-04-27T07:28:41.779Z,69.25
2023-04-27T07:32:45.065Z,67.83
2023-04-27T07:36:49.246Z,69.40
2023-04-27T07:40:52.957Z,68.55
2023-04-27T07:44:57.348Z,67.77
2023-04-27T07:49:02.546Z,68.60
2023-04-27T07:53:06.614Z,69.99
2023-04-27T07:57:13.867Z,67.79
2023-04-27T08:01:20.154Z,69.11
2023-04-27T08:05:27.277Z,68.31
2023-04-27T08:09:31.661Z,69.54
2023-04-27T08:13:36.371Z,68.25
2023-04-27T08:17:42.600Z,68.67
2023-04-27T08:21:45.786Z,67.61
2023-04-27T08:25:48.880Z,66.52
2023-04-27T08:29:51.957Z,66.54
2023-04-27T08:33:57.460Z,67.42
2023-04-27T08:38:00.756Z,65.76
2023-04-27T08:42:12.780Z,66.03
2023-04-27T08:46:24.184Z,67.34
2023-04-27T08:50:28.256Z,66.82
2023-04-27T08:54:32.093Z,67.61
2023-04-27T08:58:39.610Z,66.77
2023-04-27T09:02:47.424Z,66.91
2023-04-27T09:06:51.658Z,67.31
2023-04-27T09:10:55.985Z,66.63
2023-04-27T09:15:06.460Z,66.90
2023-04-27T09:19:10.655Z,66.66
2023-04-27T09:23:31.748Z,63.71
2023-04-27T09:27:37.992Z,67.82
2023-04-27T09:31:42.368Z,61.90
2023-04-27T09:35:46.625Z,59.67
2023-04-27T09:39:50.780Z,61.78
2023-04-27T09:43:57.680Z,61.66
2023-04-27T09:48:02.296Z,61.24
2023-04-27T09:52:05.996Z,63.37
2023-04-27T09:56:31.557Z,64.16
2023-04-27T10:00:42.940Z,63.99
2023-04-27T10:05:10.385Z,64.26
2023-04-27T10:09:13.734Z,66.18
2023-04-27T10:13:26.349Z,68.32
2023-04-27T10:17:32.365Z,67.33
2023-04-27T10:21:35.591Z,61.95
2023-04-27T10:25:41.084Z,64.06
2023-04-27T10:29:46.258Z,67.15
2023-04-27T10:33:50.012Z,67.70
2023-04-27T10:38:08.976Z,65.45
2023-04-27T10:42:12.221Z,66.46
2023-04-27T10:46:16.050Z,64.95
2023-04-27T10:50:19.602Z,65.66
2023-04-27T10:54:26.310Z,66.38
2023-04-27T10:58:41.508Z,65.00
2023-04-27T11:02:52.422Z,64.62
2023-04-27T11:06:55.446Z,62.47
2023-04-27T11:10:58.420Z,64.62
2023-04-27T11:15:03.920Z,65.43
2023-04-27T11:19:07.445Z,63.17
2023-04-27T11:23:13.610Z,58.31
2023-04-27T11:27:17.033Z,60.12
2023-04-27T11:31:20.841Z,58.39
2023-04-27T11:35:34.688Z,57.95
2023-04-27T11:39:39.134Z,59.54
2023-04-27T11:43:43.508Z,59.81
2023-04-27T11:47:47.682Z,59.35
2023-04-27T11:51:51.751Z,58.88
2023-04-27T11:55:55.070Z,61.17
2023-04-27T12:00:01.793Z,59.47
2023-04-27T12:04:05.243Z,59.50
2023-04-27T12:08:08.556Z,58.63
2023-04-27T12:12:13.258Z,57.03
2023-04-27T12:16:17.122Z,57.27
2023-04-27T12:20:26.461Z,60.02
2023-04-27T12:24:29.623Z,61.68
2023-04-27T12:28:32.689Z,62.79
2023-04-27T12:32:36.286Z,63.38
2023-04-27T12:36:41.681Z,63.44
2023-04-27T12:40:45.185Z,59.71
2023-04-27T12:44:48.145Z,62.36
2023-04-27T12:48:51.170Z,59.10
2023-04-27T12:52:54.267Z,60.01
2023-04-27T12:56:57.254Z,54.99
2023-04-27T13:01:00.573Z,51.64
2023-04-27T13:05:08.080Z,54.98
2023-04-27T13:09:12.203Z,54.96
2023-04-27T13:13:16.093Z,55.85
2023-04-27T13:17:20.421Z,55.63
2023-04-27T13:21:23.735Z,52.73
2023-04-27T13:25:27.239Z,53.37
2023-04-27T13:29:30.971Z,55.19
2023-04-27T13:33:39.411Z,56.73
2023-04-27T13:37:42.548Z,58.25
2023-04-27T13:41:46.164Z,58.04
2023-04-27T13:45:50.970Z,57.31
2023-04-27T13:49:54.004Z,55.25
2023-04-27T13:53:57.036Z,57.53
2023-04-27T13:57:59.921Z,57.79
2023-04-27T14:02:03.762Z,57.02
2023-04-27T14:06:07.877Z,55.95
2023-04-27T14:10:11.164Z,57.18
2023-04-27T14:14:14.275Z,57.37
2023-04-27T14:18:18.219Z,56.88
2023-04-27T14:22:21.410Z,57.48
2023-04-27T14:26:26.385Z,56.08
2023-04-27T14:30:29.830Z,59.24
2023-04-27T14:34:32.831Z,58.83
2023-04-27T14:38:36.539Z,56.16
2023-04-27T14:42:39.618Z,56.84
2023-04-27T14:46:42.774Z,58.37
2023-04-27T14:50:47.075Z,55.19
2023-04-27T14:54:50.143Z,55.72
2023-04-27T14:58:55.400Z,54.80
2023-04-27T15:02:58.473Z,55.51
2023-04-27T15:07:03.344Z,54.68
2023-04-27T15:11:07.683Z,53.13
2023-04-27T15:15:12.895Z,53.20
2023-04-27T15:19:16.152Z,53.68
2023-04-27T15:23:19.796Z,54.11
2023-04-27T15:27:24.051Z,55.01
2023-04-27T15:31:27.559Z,55.68
2023-04-27T15:35:30.866Z,55.03
2023-04-27T15:39:35.909Z,55.81
2023-04-27T15:43:38.856Z,58.00
2023-04-27T15:47:42.134Z,56.93
2023-04-27T15:51:45.945Z,54.04
2023-04-27T15:55:49.028Z,54.62
2023-04-27T15:59:52.705Z,54.59
2023-04-27T16:04:00.516Z,52.64
2023-04-27T16:08:03.534Z,53.84
2023-04-27T16:12:06.666Z,56.38
2023-04-27T16:16:10.792Z,56.05
2023-04-27T16:20:14.984Z,57.15
2023-04-27T16:24:21.576Z,56.85
2023-04-27T16:28:24.582Z,54.80
2023-04-27T16:32:27.707Z,53.84
2023-04-27T16:36:33.924Z,54.61
2023-04-27T16:40:36.872Z,55.73
2023-04-27T16:44:40.447Z,56.35
2023-04-27T16:48:43.540Z,56.08
2023-04-27T16:52:46.788Z,57.20
2023-04-27T16:56:50.555Z,59.33
2023-04-27T17:00:53.746Z,59.27
2023-04-27T17:04:59.582Z,58.37
2023-04-27T17:09:03.156Z,59.70
2023-04-27T17:13:07.784Z,59.96
2023-04-27T17:17:11.474Z,60.01
2023-04-27T17:21:14.464Z,59.17
2023-04-27T17:25:17.601Z,60.41
2023-04-27T17:29:21.693Z,59.56
2023-04-27T17:33:24.666Z,59.12
2023-04-27T17:37:27.690Z,59.93
2023-04-27T17:41:32.837Z,60.42
2023-04-27T17:45:36.724Z,60.06
2023-04-27T17:49:39.848Z,60.03
2023-04-27T17:53:42.975Z,61.34
2023-04-27T17:57:47.130Z,62.89
2023-04-27T18:01:50.157Z,63.04
2023-04-27T18:05:53.550Z,63.09
2023-04-27T18:09:57.619Z,63.46
2023-04-27T18:14:00.462Z,63.71
2023-04-27T18:18:03.327Z,64.29
2023-04-27T18:22:06.774Z,64.17
2023-04-27T18:26:11.677Z,64.25
2023-04-27T18:30:15.938Z,70.14
2023-04-27T18:34:19.695Z,73.61
2023-04-27T18:38:23.730Z,74.14
2023-04-27T18:42:27.106Z,75.94
2023-04-27T18:46:30.905Z,76.02
2023-04-27T18:50:33.867Z,74.78
2023-04-27T18:54:37.517Z,72.85
2023-04-27T18:58:40.983Z,73.65
2023-04-27T19:02:44.175Z,75.43
2023-04-27T19:06:50.059Z,75.80
2023-04-27T19:10:53.105Z,76.49
2023-04-27T19:14:56.217Z,77.31
2023-04-27T19:19:02.481Z,76.87
2023-04-27T19:23:05.582Z,78.85
2023-04-27T19:27:41.723Z,79.23
2023-04-27T19:31:46.421Z,77.54
2023-04-27T19:36:03.236Z,77.75
2023-04-27T19:40:08.863Z,77.21
2023-04-27T19:44:21.150Z,77.88
2023-04-27T19:48:24.699Z,78.21
2023-04-27T19:52:35.202Z,78.41
2023-04-27T19:56:41.406Z,79.07
2023-04-27T20:00:45.185Z,80.27
2023-04-27T20:04:51.316Z,79.69
2023-04-27T20:08:54.992Z,79.94
2023-04-27T20:12:58.626Z,80.10
2023-04-27T20:17:03.230Z,79.61
2023-04-27T20:21:06.451Z,79.53
2023-04-27T20:25:10.872Z,78.98
2023-04-27T20:29:14.536Z,78.87
2023-04-27T20:33:18.103Z,78.42
2023-04-27T20:37:21.575Z,77.85
2023-04-27T20:41:31.064Z,80.06
2023-04-27T20:45:34.523Z,82.37
2023-04-27T20:49:37.863Z,81.30
2023-04-27T20:53:41.172Z,82.18
2023-04-27T20:57:44.382Z,82.28
2023-04-27T21:10:42.291Z,80.85
2023-04-27T21:14:45.192Z,80.78
2023-04-27T21:18:50.145Z,80.77
2023-04-27T21:22:52.813Z,81.32
2023-04-27T21:26:56.023Z,82.01
2023-04-27T21:30:58.763Z,84.07
2023-04-27T21:35:02.221Z,85.71
2023-04-27T21:39:05.968Z,87.32
2023-04-27T21:43:09.007Z,86.42
2023-04-27T21:47:14.824Z,86.13
2023-04-27T21:51:17.539Z,85.70
2023-04-27T21:55:20.388Z,86.41
2023-04-27T21:59:24.766Z,86.07
2023-04-27T22:03:28.702Z,85.89
2023-04-27T22:07:32.949Z,86.58
2023-04-27T22:11:35.938Z,85.79
2023-04-27T22:15:38.673Z,86.68
2023-04-27T22:19:41.738Z,87.00
2023-04-27T22:23:44.465Z,87.10
2023-04-27T22:27:47.730Z,86.89
2023-04-27T22:31:52.412Z,86.69
2023-04-27T22:35:55.387Z,86.46
2023-04-27T22:40:06.780Z,87.25
2023-04-27T22:44:09.563Z,90.32
2023-04-27T22:48:13.492Z,91.49
2023-04-27T22:52:16.623Z,93.08
2023-04-27T22:56:19.598Z,92.64
2023-04-27T23:00:22.568Z,91.15
2023-04-27T23:04:26.991Z,90.43
2023-04-27T23:08:29.681Z,90.07
2023-04-27T23:12:33.703Z,89.20
2023-04-27T23:16:37.938Z,88.38
2023-04-27T23:20:40.946Z,87.72
2023-04-27T23:24:43.627Z,87.71
2023-04-27T23:29:10.204Z,88.12
2023-04-27T23:33:13.784Z,87.94
2023-04-27T23:37:27.721Z,88.68
2023-04-27T23:41:30.473Z,88.69
2023-04-27T23:45:39.527Z,89.21
2023-04-27T23:49:45.537Z,89.22
2023-04-27T23:53:59.568Z,89.51
2023-04-27T23:58:03.100Z,89.79
